createdAt,value
2022-10-21T00:00:56.946Z,79.02
2022-10-21T00:03:26.973Z,78.97
2022-10-21T00:05:54.593Z,78.52
2022-10-21T00:08:21.866Z,78.33
2022-10-21T00:10:58.623Z,77.93
2022-10-21T00:13:28.120Z,78.23
2022-10-21T00:16:12.096Z,78.59
2022-10-21T00:18:42.352Z,78.50
2022-10-21T00:21:17.985Z,78.52
2022-10-21T00:23:46.085Z,78.59
2022-10-21T00:26:14.678Z,78.00
2022-10-21T00:28:42.937Z,78.16
2022-10-21T00:31:13.010Z,78.32
2022-10-21T00:33:40.224Z,78.43
2022-10-21T00:36:14.636Z,78.28
2022-10-21T00:38:46.370Z,78.12
2022-10-21T00:41:14.635Z,78.20
2022-10-21T00:44:17.144Z,77.71
2022-10-21T00:46:59.882Z,78.25
2022-10-21T00:49:57.422Z,78.28
2022-10-21T00:52:24.973Z,78.13
2022-10-21T00:54:55.410Z,78.38
2022-10-21T00:57:23.848Z,78.51
2022-10-21T01:00:01.546Z,77.99
2022-10-21T01:02:30.219Z,77.90
2022-10-21T01:05:01.982Z,78.03
2022-10-21T01:07:29.531Z,78.54
2022-10-21T01:09:56.557Z,78.28
2022-10-21T01:12:45.164Z,78.14
2022-10-21T01:15:28.736Z,77.63
2022-10-21T01:18:22.000Z,77.88
2022-10-21T01:21:16.890Z,77.24
2022-10-21T01:24:21.689Z,77.50
2022-10-21T01:27:28.505Z,77.29
2022-10-21T01:30:14.254Z,77.03
2022-10-21T01:33:22.839Z,77.06
2022-10-21T01:36:08.201Z,76.87
2022-10-21T01:38:50.146Z,76.81
2022-10-21T01:41:26.394Z,76.84
2022-10-21T01:44:15.782Z,76.76
2022-10-21T01:47:13.025Z,76.49
2022-10-21T01:49:54.186Z,76.60
2022-10-21T01:52:21.559Z,76.86
2022-10-21T01:55:12.766Z,76.55
2022-10-21T01:57:45.006Z,76.13
2022-10-21T02:00:12.550Z,75.41
2022-10-21T02:02:48.573Z,74.70
2022-10-21T02:05:23.473Z,75.06
2022-10-21T02:07:50.603Z,75.41
2022-10-21T02:10:18.926Z,75.02
2022-10-21T02:12:50.536Z,74.84
2022-10-21T02:15:19.841Z,74.81
2022-10-21T02:17:57.648Z,74.86
2022-10-21T02:20:29.330Z,74.58
2022-10-21T02:22:56.403Z,74.50
2022-10-21T02:25:32.839Z,74.08
2022-10-21T02:28:00.301Z,74.75
2022-10-21T02:30:32.735Z,74.82
2022-10-21T02:33:27.674Z,75.61
2022-10-21T02:36:23.790Z,74.75
2022-10-21T02:38:59.078Z,75.15
2022-10-21T02:41:29.064Z,75.48
2022-10-21T02:44:02.927Z,76.09
2022-10-21T02:46:42.602Z,76.58
2022-10-21T02:49:09.790Z,76.63
2022-10-21T02:51:37.154Z,77.51
2022-10-21T02:54:04.188Z,77.94
2022-10-21T02:56:31.127Z,78.11
2022-10-21T02:58:58.080Z,78.54
2022-10-21T03:01:25.040Z,78.89
2022-10-21T03:03:51.990Z,79.40
2022-10-21T03:06:19.533Z,79.38
2022-10-21T03:08:46.583Z,79.14
2022-10-21T03:11:13.581Z,79.71
2022-10-21T03:13:40.638Z,80.31
2022-10-21T03:16:08.266Z,80.66
2022-10-21T03:18:35.203Z,80.90
2022-10-21T03:21:02.291Z,81.21
2022-10-21T03:23:29.210Z,81.64
2022-10-21T03:25:56.165Z,82.32
2022-10-21T03:28:23.134Z,82.47
2022-10-21T03:30:50.058Z,82.51
2022-10-21T03:33:17.046Z,83.26
2022-10-21T03:35:44.038Z,83.03
2022-10-21T03:38:10.937Z,83.01
2022-10-21T03:40:37.888Z,83.10
2022-10-21T03:43:04.818Z,82.45
2022-10-21T03:45:31.894Z,83.72
2022-10-21T03:47:58.873Z,83.99
2022-10-21T03:50:26.764Z,83.71
2022-10-21T03:52:54.368Z,83.60
2022-10-21T03:55:24.272Z,83.73
2022-10-21T03:57:52.700Z,84.10
2022-10-21T04:00:20.706Z,84.42
2022-10-21T04:02:47.814Z,84.22
2022-10-21T04:05:15.163Z,84.18
2022-10-21T04:07:42.376Z,84.12
2022-10-21T04:10:10.475Z,84.40
2022-10-21T04:12:38.024Z,84.23
2022-10-21T04:15:06.890Z,83.29
2022-10-21T04:17:34.121Z,83.36
2022-10-21T04:20:01.047Z,83.61
2022-10-21T04:22:28.042Z,83.68
2022-10-21T04:24:55.011Z,83.68
2022-10-21T04:27:22.151Z,83.00
2022-10-21T04:29:49.210Z,83.49
2022-10-21T04:32:16.185Z,83.20
2022-10-21T04:34:43.198Z,82.87
2022-10-21T04:37:10.200Z,82.73
2022-10-21T04:39:37.160Z,83.10
2022-10-21T04:42:04.843Z,82.62
2022-10-21T04:44:31.834Z,82.44
2022-10-21T04:46:58.789Z,82.71
2022-10-21T04:49:25.873Z,82.55
2022-10-21T04:51:52.848Z,82.06
2022-10-21T04:54:20.077Z,81.74
2022-10-21T04:56:47.254Z,81.14
2022-10-21T04:59:14.316Z,81.21
2022-10-21T05:01:41.265Z,80.39
2022-10-21T05:04:08.197Z,80.13
2022-10-21T05:06:35.163Z,79.80
2022-10-21T05:09:02.201Z,79.20
2022-10-21T05:11:30.515Z,78.31
2022-10-21T05:13:57.479Z,77.81
2022-10-21T05:16:24.423Z,78.28
2022-10-21T05:18:51.598Z,77.65
2022-10-21T05:21:18.565Z,77.85
2022-10-21T05:23:45.561Z,78.55
2022-10-21T05:26:12.510Z,77.23
2022-10-21T05:28:39.458Z,77.29
2022-10-21T05:31:06.386Z,77.35
2022-10-21T05:33:33.469Z,77.93
2022-10-21T05:36:07.600Z,78.33
2022-10-21T05:38:35.322Z,77.77
2022-10-21T05:41:02.868Z,77.56
2022-10-21T05:43:29.911Z,77.67
2022-10-21T05:45:57.601Z,77.00
2022-10-21T05:48:25.137Z,76.55
2022-10-21T05:50:54.292Z,75.00
2022-10-21T05:53:24.079Z,75.43
2022-10-21T05:56:06.013Z,75.81
2022-10-21T05:58:34.326Z,75.73
2022-10-21T06:01:02.273Z,74.65
2022-10-21T06:03:32.524Z,75.52
2022-10-21T06:06:01.012Z,75.86
2022-10-21T06:08:29.695Z,75.38
2022-10-21T06:11:09.391Z,75.15
2022-10-21T06:13:36.894Z,74.60
2022-10-21T06:18:38.240Z,74.52
2022-10-21T06:21:05.745Z,74.27
2022-10-21T06:23:33.067Z,74.22
2022-10-21T06:26:11.862Z,73.26
2022-10-21T06:28:41.307Z,73.75
2022-10-21T06:31:12.345Z,73.85
2022-10-21T06:33:39.286Z,73.46
2022-10-21T06:36:06.765Z,72.66
2022-10-21T06:38:33.866Z,72.32
2022-10-21T06:41:13.014Z,70.16
2022-10-21T06:43:41.854Z,68.10
2022-10-21T06:46:13.138Z,65.13
2022-10-21T06:48:40.550Z,61.70
2022-10-21T06:51:20.541Z,60.56
2022-10-21T06:53:51.715Z,56.94
2022-10-21T06:56:20.345Z,54.50
2022-10-21T06:58:49.280Z,53.25
2022-10-21T07:01:34.415Z,53.11
2022-10-21T07:04:10.313Z,52.81
2022-10-21T07:06:38.163Z,54.57
2022-10-21T07:09:06.991Z,54.18
2022-10-21T07:11:34.190Z,55.11
2022-10-21T07:14:01.816Z,55.35
2022-10-21T07:16:33.340Z,53.90
2022-10-21T07:19:00.489Z,54.41
2022-10-21T07:21:30.597Z,55.10
2022-10-21T07:23:59.921Z,53.53
2022-10-21T07:26:30.545Z,52.14
2022-10-21T07:28:59.715Z,52.84
2022-10-21T07:31:28.167Z,51.90
2022-10-21T07:33:55.572Z,50.87
2022-10-21T07:36:27.402Z,51.98
2022-10-21T07:38:57.870Z,50.60
2022-10-21T07:41:30.206Z,51.32
2022-10-21T07:43:58.602Z,50.42
2022-10-21T07:46:25.951Z,49.49
2022-10-21T07:48:53.363Z,50.14
2022-10-21T07:51:28.437Z,51.61
2022-10-21T07:53:57.239Z,52.34
2022-10-21T07:56:34.801Z,52.62
2022-10-21T07:59:02.946Z,54.54
2022-10-21T08:01:30.703Z,54.69
2022-10-21T08:03:58.482Z,54.64
2022-10-21T08:06:27.270Z,55.79
2022-10-21T08:08:57.342Z,56.00
2022-10-21T08:11:31.416Z,57.27
2022-10-21T08:13:58.864Z,56.75
2022-10-21T08:16:26.606Z,56.80
2022-10-21T08:18:54.848Z,57.77
2022-10-21T08:21:21.756Z,58.47
2022-10-21T08:23:48.804Z,59.17
2022-10-21T08:26:16.621Z,59.04
2022-10-21T08:28:44.315Z,57.44
2022-10-21T08:31:14.294Z,57.65
2022-10-21T08:33:41.641Z,58.60
2022-10-21T08:36:17.571Z,57.11
2022-10-21T08:38:45.221Z,57.14
2022-10-21T08:41:43.077Z,56.14
2022-10-21T08:44:37.830Z,54.55
2022-10-21T08:47:25.558Z,55.75
2022-10-21T08:50:06.349Z,56.09
2022-10-21T08:52:43.979Z,55.01
2022-10-21T08:55:23.882Z,56.41
2022-10-21T08:57:53.679Z,57.37
2022-10-21T09:00:44.729Z,57.30
2022-10-21T09:03:37.990Z,57.24
2022-10-21T09:06:34.309Z,56.57
2022-10-21T09:09:28.235Z,56.94
2022-10-21T09:12:01.434Z,58.15
2022-10-21T09:15:14.732Z,58.45
2022-10-21T09:18:04.114Z,58.22
2022-10-21T09:21:04.894Z,57.09
2022-10-21T09:23:44.619Z,56.11
2022-10-21T09:26:26.524Z,55.77
2022-10-21T09:28:57.637Z,53.55
2022-10-21T09:31:24.628Z,52.66
2022-10-21T09:33:59.609Z,52.61
2022-10-21T09:36:34.414Z,52.82
2022-10-21T09:39:39.858Z,52.61
2022-10-21T09:42:13.430Z,52.29
2022-10-21T09:44:49.983Z,52.37
2022-10-21T09:47:24.748Z,51.14
2022-10-21T09:50:13.807Z,50.00
2022-10-21T09:52:58.071Z,50.03
2022-10-21T09:55:26.004Z,50.67
2022-10-21T09:58:04.132Z,51.42
2022-10-21T10:00:50.178Z,50.20
2022-10-21T10:03:38.039Z,49.54
2022-10-21T10:06:06.189Z,50.14
2022-10-21T10:08:44.611Z,48.95
2022-10-21T10:11:11.612Z,48.54
2022-10-21T10:13:52.092Z,47.76
2022-10-21T10:16:29.076Z,48.69
2022-10-21T10:19:28.454Z,48.11
2022-10-21T10:22:16.479Z,47.29
2022-10-21T10:24:45.014Z,47.59
2022-10-21T10:27:23.349Z,47.43
2022-10-21T10:29:56.318Z,48.58
2022-10-21T10:32:26.836Z,47.99
2022-10-21T10:35:03.215Z,47.14
2022-10-21T10:37:37.129Z,46.41
2022-10-21T10:40:26.589Z,46.59
2022-10-21T10:43:04.449Z,47.48
2022-10-21T10:45:31.523Z,47.51
2022-10-21T10:48:04.064Z,47.87
2022-10-21T10:50:51.099Z,46.78
2022-10-21T10:53:38.065Z,47.01
2022-10-21T10:56:39.806Z,47.87
2022-10-21T10:59:14.746Z,49.04
2022-10-21T11:02:09.862Z,48.28
2022-10-21T11:05:27.504Z,48.17
2022-10-21T11:08:03.857Z,48.03
2022-10-21T11:10:53.383Z,49.51
2022-10-21T11:13:23.952Z,49.50
2022-10-21T11:16:11.387Z,49.80
2022-10-21T11:19:22.694Z,50.30
2022-10-21T11:22:37.035Z,51.12
2022-10-21T11:25:28.156Z,50.35
2022-10-21T11:28:36.759Z,49.48
2022-10-21T11:31:17.185Z,50.55
2022-10-21T11:34:22.413Z,51.19
2022-10-21T11:37:23.332Z,50.65
2022-10-21T11:40:04.410Z,51.43
2022-10-21T11:42:54.558Z,51.55
2022-10-21T11:45:58.077Z,50.38
2022-10-21T11:48:57.242Z,51.38
2022-10-21T11:52:03.430Z,52.34
2022-10-21T11:55:08.950Z,52.26
2022-10-21T11:58:01.436Z,53.65
2022-10-21T12:00:44.608Z,53.85
2022-10-21T12:03:58.489Z,54.80
2022-10-21T12:06:42.634Z,54.30
2022-10-21T12:09:17.571Z,54.34
2022-10-21T12:11:55.657Z,54.96
2022-10-21T12:14:47.172Z,55.14
2022-10-21T12:17:19.891Z,54.60
2022-10-21T12:20:21.312Z,55.48
2022-10-21T12:22:56.838Z,55.83
2022-10-21T12:25:45.044Z,56.01
2022-10-21T12:28:36.441Z,56.07
2022-10-21T12:31:50.115Z,56.54
2022-10-21T12:34:17.404Z,56.71
2022-10-21T12:36:50.552Z,57.05
2022-10-21T12:39:50.641Z,57.72
2022-10-21T12:42:28.564Z,58.73
2022-10-21T12:44:55.619Z,58.60
2022-10-21T12:47:37.390Z,58.69
2022-10-21T12:50:29.870Z,58.98
2022-10-21T12:53:53.748Z,59.63
2022-10-21T12:56:44.078Z,59.53
2022-10-21T12:59:40.869Z,59.93
2022-10-21T13:02:10.584Z,60.31
2022-10-21T13:04:37.391Z,60.10
2022-10-21T13:07:16.935Z,60.59
2022-10-21T13:09:50.844Z,61.05
2022-10-21T13:12:23.496Z,61.57
2022-10-21T13:15:21.430Z,61.18
2022-10-21T13:17:56.632Z,61.86
2022-10-21T13:20:23.424Z,61.32
2022-10-21T13:23:01.892Z,61.22
2022-10-21T13:25:36.248Z,61.65
2022-10-21T13:28:15.219Z,62.31
2022-10-21T13:30:51.061Z,62.58
2022-10-21T13:33:29.905Z,62.42
2022-10-21T13:36:32.882Z,62.40
2022-10-21T13:39:06.477Z,62.07
2022-10-21T13:41:34.036Z,63.21
2022-10-21T13:44:05.659Z,63.62
2022-10-21T13:46:43.310Z,63.85
2022-10-21T13:49:33.725Z,63.75
2022-10-21T13:52:00.641Z,64.47
2022-10-21T13:54:35.618Z,64.43
2022-10-21T13:57:09.638Z,64.78
2022-10-21T13:59:36.534Z,64.95
2022-10-21T14:02:05.145Z,64.76
2022-10-21T14:04:33.981Z,64.68
2022-10-21T14:07:09.099Z,65.03
2022-10-21T14:09:52.046Z,64.96
2022-10-21T14:12:41.559Z,64.96
2022-10-21T14:15:19.308Z,65.65
2022-10-21T14:17:55.102Z,65.43
2022-10-21T14:20:34.073Z,65.23
2022-10-21T14:23:16.208Z,65.29
2022-10-21T14:25:43.420Z,65.92
2022-10-21T14:28:12.252Z,65.73
2022-10-21T14:30:39.880Z,65.97
2022-10-21T14:33:15.260Z,65.98
2022-10-21T14:35:42.981Z,65.23
2022-10-21T14:38:34.476Z,65.64
2022-10-21T14:41:08.358Z,65.20
2022-10-21T14:43:39.934Z,65.87
2022-10-21T14:46:09.738Z,66.40
2022-10-21T14:48:59.853Z,66.65
2022-10-21T14:51:27.859Z,66.67
2022-10-21T14:53:58.915Z,66.65
2022-10-21T14:56:35.358Z,66.49
2022-10-21T14:59:23.874Z,67.14
2022-10-21T15:01:52.155Z,67.62
2022-10-21T15:04:53.194Z,67.38
2022-10-21T15:07:32.534Z,66.46
2022-10-21T15:10:18.971Z,66.71
2022-10-21T15:12:51.461Z,67.20
2022-10-21T15:15:40.165Z,67.13
2022-10-21T15:18:39.153Z,67.34
2022-10-21T15:21:09.801Z,67.18
2022-10-21T15:23:50.558Z,67.49
2022-10-21T15:26:26.747Z,67.49
2022-10-21T15:28:54.740Z,67.91
2022-10-21T15:31:28.548Z,68.03
2022-10-21T15:33:58.686Z,68.30
2022-10-21T15:36:25.743Z,68.42
2022-10-21T15:38:54.715Z,69.00
2022-10-21T15:41:25.456Z,69.12
2022-10-21T15:44:01.754Z,69.20
2022-10-21T15:46:33.075Z,69.32
2022-10-21T15:49:12.963Z,69.54
2022-10-21T15:51:39.889Z,69.15
2022-10-21T15:54:06.813Z,69.66
2022-10-21T15:56:33.826Z,69.59
2022-10-21T15:59:00.738Z,69.65
2022-10-21T16:01:28.077Z,69.89
2022-10-21T16:03:55.016Z,69.90
2022-10-21T16:06:22.661Z,70.42
2022-10-21T16:08:50.250Z,69.62
2022-10-21T16:11:29.665Z,69.61
2022-10-21T16:14:10.041Z,69.92
2022-10-21T16:16:38.904Z,70.20
2022-10-21T16:19:06.450Z,70.26
2022-10-21T16:21:33.625Z,71.19
2022-10-21T16:24:00.647Z,71.25
2022-10-21T16:26:28.898Z,71.67
2022-10-21T16:28:57.855Z,71.07
2022-10-21T16:31:27.443Z,71.21
2022-10-21T16:33:54.568Z,70.96
2022-10-21T16:36:29.835Z,71.39
2022-10-21T16:38:58.198Z,71.46
2022-10-21T16:41:28.768Z,71.47
2022-10-21T16:43:56.446Z,71.70
2022-10-21T16:46:31.291Z,71.74
2022-10-21T16:49:00.414Z,72.07
2022-10-21T16:51:29.795Z,71.91
2022-10-21T16:53:57.610Z,72.09
2022-10-21T16:56:24.803Z,72.04
2022-10-21T16:58:52.604Z,72.07
2022-10-21T17:01:23.926Z,72.39
2022-10-21T17:03:52.248Z,71.91
2022-10-21T17:06:23.585Z,72.68
2022-10-21T17:08:52.175Z,71.69
2022-10-21T17:11:35.333Z,72.79
2022-10-21T17:14:05.415Z,73.17
2022-10-21T17:16:32.586Z,72.80
2022-10-21T17:18:59.677Z,72.92
2022-10-21T17:21:30.271Z,72.83
2022-10-21T17:24:01.956Z,72.83
2022-10-21T17:26:30.274Z,73.41
2022-10-21T17:28:58.093Z,73.40
2022-10-21T17:31:28.600Z,73.42
2022-10-21T17:33:59.234Z,73.75
2022-10-21T17:36:26.186Z,73.49
2022-10-21T17:38:53.089Z,72.65
2022-10-21T17:41:20.571Z,73.48
2022-10-21T17:43:48.728Z,72.91
2022-10-21T17:46:22.526Z,73.70
2022-10-21T17:48:57.668Z,73.38
2022-10-21T17:51:25.580Z,73.19
2022-10-21T17:53:54.837Z,72.96
2022-10-21T17:56:23.193Z,73.71
2022-10-21T17:58:52.271Z,73.43
2022-10-21T18:01:20.450Z,73.84
2022-10-21T18:03:47.447Z,73.43
2022-10-21T18:06:15.682Z,73.94
2022-10-21T18:08:43.500Z,73.54
2022-10-21T18:11:14.771Z,73.10
2022-10-21T18:13:42.953Z,73.27
2022-10-21T18:16:16.836Z,74.18
2022-10-21T18:18:44.639Z,73.92
2022-10-21T18:21:15.943Z,74.37
2022-10-21T18:23:46.541Z,74.71
2022-10-21T18:26:21.514Z,74.56
2022-10-21T18:28:57.116Z,74.16
2022-10-21T18:31:28.135Z,74.38
2022-10-21T18:33:56.955Z,74.59
2022-10-21T18:36:24.719Z,74.33
2022-10-21T18:38:52.264Z,74.63
2022-10-21T18:41:21.327Z,74.36
2022-10-21T18:44:00.195Z,74.89
2022-10-21T18:46:29.500Z,74.68
2022-10-21T18:48:57.431Z,74.58
2022-10-21T18:51:25.185Z,74.55
2022-10-21T18:53:53.444Z,74.77
2022-10-21T18:56:23.407Z,75.11
2022-10-21T18:58:51.527Z,74.82
2022-10-21T19:01:20.871Z,74.88
2022-10-21T19:03:50.831Z,74.73
2022-10-21T19:06:38.770Z,74.51
2022-10-21T19:09:13.393Z,74.59
2022-10-21T19:11:42.309Z,74.63
2022-10-21T19:14:12.951Z,74.45
2022-10-21T19:16:42.691Z,74.32
2022-10-21T19:19:10.053Z,74.57
2022-10-21T19:21:37.103Z,74.86
2022-10-21T19:24:04.473Z,74.62
2022-10-21T19:26:38.097Z,74.68
2022-10-21T19:29:13.405Z,74.71
2022-10-21T19:31:41.822Z,74.62
2022-10-21T19:34:12.166Z,73.86
2022-10-21T19:36:39.134Z,74.09
2022-10-21T19:39:06.181Z,74.23
2022-10-21T19:41:33.480Z,74.19
2022-10-21T19:44:00.529Z,74.47
2022-10-21T19:46:31.849Z,73.93
2022-10-21T19:49:02.284Z,73.40
2022-10-21T19:51:29.538Z,74.06
2022-10-21T19:53:56.767Z,73.97
2022-10-21T19:56:28.704Z,74.11
2022-10-21T19:58:57.876Z,73.64
2022-10-21T20:01:27.535Z,74.12
2022-10-21T20:03:55.396Z,74.11
2022-10-21T20:06:33.121Z,74.47
2022-10-21T20:09:11.413Z,74.81
2022-10-21T20:11:39.469Z,74.72
2022-10-21T20:14:07.110Z,74.58
2022-10-21T20:16:41.939Z,73.91
2022-10-21T20:19:11.133Z,74.66
2022-10-21T20:21:38.260Z,74.46
2022-10-21T20:24:05.903Z,74.40
2022-10-21T20:26:33.599Z,74.51
2022-10-21T20:29:02.012Z,74.71
2022-10-21T20:31:29.763Z,74.40
2022-10-21T20:33:57.267Z,74.31
2022-10-21T20:36:32.539Z,74.21
2022-10-21T20:39:01.537Z,74.59
2022-10-21T20:41:37.262Z,74.28
2022-10-21T20:44:07.974Z,74.65
2022-10-21T20:46:36.142Z,74.25
2022-10-21T20:49:06.283Z,74.51
2022-10-21T20:51:34.343Z,74.59
2022-10-21T20:54:08.780Z,74.76
2022-10-21T20:56:39.266Z,75.56
2022-10-21T20:59:08.883Z,74.90
2022-10-21T21:01:42.326Z,75.94
2022-10-21T21:04:13.705Z,75.93
2022-10-21T21:06:47.310Z,77.06
2022-10-21T21:12:03.774Z,78.96
2022-10-21T21:14:31.611Z,79.45
2022-10-21T21:16:58.685Z,80.99
2022-10-21T21:19:25.887Z,80.68
2022-10-21T21:21:53.266Z,81.30
2022-10-21T21:24:20.327Z,80.58
2022-10-21T21:26:47.427Z,80.98
2022-10-21T21:29:14.998Z,81.38
2022-10-21T21:31:42.709Z,80.88
2022-10-21T21:34:10.252Z,81.61
2022-10-21T21:36:37.348Z,82.60
2022-10-21T21:39:06.613Z,81.72
2022-10-21T21:41:34.437Z,81.56
2022-10-21T21:44:01.419Z,83.09
2022-10-21T21:46:28.440Z,82.32
2022-10-21T21:49:02.346Z,82.67
2022-10-21T21:51:33.290Z,83.35
2022-10-21T21:54:00.600Z,82.70
2022-10-21T21:56:28.182Z,83.26
2022-10-21T21:58:56.955Z,83.59
2022-10-21T22:01:27.061Z,83.03
2022-10-21T22:03:54.625Z,84.60
2022-10-21T22:08:59.376Z,85.30
2022-10-21T22:11:30.597Z,85.70
2022-10-21T22:13:58.326Z,85.98
2022-10-21T22:16:30.161Z,85.79
2022-10-21T22:19:00.284Z,85.58
2022-10-21T22:21:27.693Z,85.80
2022-10-21T22:23:54.689Z,85.82
2022-10-21T22:26:23.403Z,86.16
2022-10-21T22:28:50.382Z,87.18
2022-10-21T22:31:18.416Z,86.41
2022-10-21T22:33:45.747Z,86.79
2022-10-21T22:36:14.348Z,86.49
2022-10-21T22:38:41.302Z,85.62
2022-10-21T22:41:12.258Z,86.17
2022-10-21T22:43:39.725Z,87.13
2022-10-21T22:46:21.484Z,87.73
2022-10-21T22:48:53.742Z,87.16
2022-10-21T22:51:20.735Z,87.57
2022-10-21T22:53:53.374Z,88.48
2022-10-21T22:56:23.660Z,88.27
2022-10-21T22:58:50.632Z,88.41
2022-10-21T23:01:17.595Z,89.68
2022-10-21T23:03:44.524Z,89.00
2022-10-21T23:06:11.682Z,89.92
2022-10-21T23:08:38.709Z,90.28
2022-10-21T23:11:05.740Z,90.45
2022-10-21T23:13:32.727Z,91.64
2022-10-21T23:15:59.680Z,91.88
2022-10-21T23:18:26.663Z,92.35
2022-10-21T23:20:54.054Z,93.05
2022-10-21T23:23:21.066Z,93.84
2022-10-21T23:25:48.008Z,93.96
2022-10-21T23:28:14.945Z,94.06
2022-10-21T23:30:43.282Z,95.48
2022-10-21T23:33:10.584Z,95.82
2022-10-21T23:35:37.576Z,96.05
2022-10-21T23:38:04.591Z,96.88
2022-10-21T23:40:31.574Z,95.99
2022-10-21T23:42:58.525Z,96.80
2022-10-21T23:45:25.459Z,96.61
2022-10-21T23:47:52.390Z,96.67
2022-10-21T23:50:19.461Z,97.31
2022-10-21T23:52:46.429Z,97.25
2022-10-21T23:55:13.356Z,97.77
2022-10-21T23:57:40.598Z,97.75
